createdAt,value
2017-08-15T00:00:12.034Z,18.41
2017-08-15T00:00:52.918Z,18.41
2017-08-15T00:01:33.819Z,18.44
2017-08-15T00:02:14.709Z,18.44
2017-08-15T00:02:55.598Z,18.37
2017-08-15T00:03:36.483Z,18.37
2017-08-15T00:04:17.374Z,18.34
2017-08-15T00:04:58.295Z,18.25
2017-08-15T00:05:39.170Z,18.22
2017-08-15T00:06:20.060Z,18.35
2017-08-15T00:07:00.945Z,18.4
2017-08-15T00:07:41.830Z,18.26
2017-08-15T00:08:22.710Z,18.19
2017-08-15T00:09:03.641Z,18.22
2017-08-15T00:09:44.526Z,18.25
2017-08-15T00:10:25.411Z,18.22
2017-08-15T00:11:06.298Z,18.22
2017-08-15T00:11:47.186Z,18.26
2017-08-15T00:12:28.088Z,18.15
2017-08-15T00:14:06.557Z,18.23
2017-08-15T00:14:47.419Z,18.22
2017-08-15T00:15:28.316Z,18.2
2017-08-15T00:16:09.198Z,18.22
2017-08-15T00:16:50.083Z,18.22
2017-08-15T00:17:30.971Z,18.23
2017-08-15T00:18:11.860Z,18.2
2017-08-15T00:18:52.754Z,18.22
2017-08-15T00:19:33.658Z,18.15
2017-08-15T00:20:14.526Z,18.07
2017-08-15T00:20:55.410Z,18.11
2017-08-15T00:21:36.297Z,18.08
2017-08-15T00:22:17.182Z,18.11
2017-08-15T00:22:58.071Z,18.08
2017-08-15T00:23:38.947Z,18.1
2017-08-15T00:24:19.829Z,18.08
2017-08-15T00:25:00.730Z,18.07
2017-08-15T00:25:41.616Z,18.07
2017-08-15T00:26:22.505Z,18.18
2017-08-15T00:27:03.493Z,18
2017-08-15T00:27:44.399Z,18
2017-08-15T00:28:25.285Z,18.11
2017-08-15T00:29:06.166Z,18.11
2017-08-15T00:29:47.053Z,18.19
2017-08-15T00:30:27.941Z,18.16
2017-08-15T00:31:08.866Z,18.15
2017-08-15T00:31:49.757Z,18.08
2017-08-15T00:32:30.643Z,18.04
2017-08-15T00:33:11.535Z,18.11
2017-08-15T00:33:52.442Z,18.08
2017-08-15T00:34:33.308Z,18.11
2017-08-15T00:35:14.195Z,18.04
2017-08-15T00:35:55.081Z,18.05
2017-08-15T00:36:35.972Z,18.1
2017-08-15T00:37:16.867Z,18.08
2017-08-15T00:37:57.759Z,18.08
2017-08-15T00:38:38.653Z,18
2017-08-15T00:39:19.548Z,18.01
2017-08-15T00:40:00.441Z,18.04
2017-08-15T00:40:41.322Z,18.04
2017-08-15T00:41:22.205Z,18.05
2017-08-15T00:42:03.091Z,18.01
2017-08-15T00:42:43.980Z,18.04
2017-08-15T00:43:24.873Z,17.94
2017-08-15T00:44:05.766Z,17.95
2017-08-15T00:44:46.641Z,18
2017-08-15T00:45:27.535Z,18.05
2017-08-15T00:46:08.408Z,17.94
2017-08-15T00:46:49.335Z,17.92
2017-08-15T00:47:30.219Z,18
2017-08-15T00:48:11.121Z,17.92
2017-08-15T00:48:52.000Z,17.94
2017-08-15T00:49:32.893Z,17.94
2017-08-15T00:50:13.768Z,17.89
2017-08-15T00:50:54.652Z,17.87
2017-08-15T00:51:35.538Z,17.97
2017-08-15T00:52:16.419Z,17.94
2017-08-15T00:52:57.307Z,17.94
2017-08-15T00:53:38.198Z,17.9
2017-08-15T00:54:19.093Z,18
2017-08-15T00:54:59.978Z,17.94
2017-08-15T00:55:40.865Z,17.85
2017-08-15T00:56:21.769Z,18.01
2017-08-15T00:57:02.642Z,17.94
2017-08-15T00:57:43.537Z,18.01
2017-08-15T00:58:24.434Z,18.01
2017-08-15T00:59:05.310Z,17.95
2017-08-15T00:59:46.213Z,17.98
2017-08-15T01:00:27.115Z,17.97
2017-08-15T01:01:08.000Z,17.95
2017-08-15T01:01:48.886Z,17.95
2017-08-15T01:02:29.784Z,17.92
2017-08-15T01:03:10.661Z,17.9
2017-08-15T01:03:51.553Z,17.98
2017-08-15T01:04:32.455Z,17.86
2017-08-15T01:05:13.343Z,17.89
2017-08-15T01:05:54.250Z,17.86
2017-08-15T01:06:35.136Z,17.92
2017-08-15T01:07:16.026Z,17.83
2017-08-15T01:07:56.917Z,17.9
2017-08-15T01:08:37.805Z,17.89
2017-08-15T01:09:18.686Z,17.9
2017-08-15T01:09:59.582Z,17.87
2017-08-15T01:10:40.469Z,17.85
2017-08-15T01:11:21.357Z,17.89
2017-08-15T01:12:02.246Z,17.92
2017-08-15T01:12:43.139Z,17.89
2017-08-15T01:13:24.014Z,17.82
2017-08-15T01:14:04.900Z,17.83
2017-08-15T01:14:45.790Z,17.83
2017-08-15T01:15:26.681Z,17.85
2017-08-15T01:16:07.566Z,17.86
2017-08-15T01:16:48.432Z,17.8
2017-08-15T01:17:29.325Z,17.87
2017-08-15T01:18:10.203Z,17.83
2017-08-15T01:18:51.084Z,17.82
2017-08-15T01:19:31.980Z,17.72
2017-08-15T01:20:12.873Z,17.79
2017-08-15T01:20:53.759Z,17.83
2017-08-15T01:21:34.641Z,17.74
2017-08-15T01:22:15.537Z,17.76
2017-08-15T01:22:56.433Z,17.76
2017-08-15T01:23:37.309Z,17.7
2017-08-15T01:24:18.192Z,17.76
2017-08-15T01:24:59.083Z,17.78
2017-08-15T01:25:39.985Z,17.68
2017-08-15T01:26:20.882Z,17.71
2017-08-15T01:27:01.766Z,17.7
2017-08-15T01:27:42.632Z,17.67
2017-08-15T01:28:23.516Z,17.68
2017-08-15T01:29:04.403Z,17.76
2017-08-15T01:29:45.291Z,17.71
2017-08-15T01:30:26.179Z,17.7
2017-08-15T01:31:07.075Z,17.63
2017-08-15T01:31:47.971Z,17.72
2017-08-15T01:32:28.857Z,17.67
2017-08-15T01:33:09.735Z,17.67
2017-08-15T01:33:50.610Z,17.56
2017-08-15T01:34:31.501Z,17.65
2017-08-15T01:35:12.393Z,17.7
2017-08-15T01:35:53.274Z,17.57
2017-08-15T01:36:34.175Z,17.6
2017-08-15T01:37:15.057Z,17.68
2017-08-15T01:37:55.941Z,17.63
2017-08-15T01:38:36.817Z,17.59
2017-08-15T01:39:17.707Z,17.72
2017-08-15T01:39:58.601Z,17.68
2017-08-15T01:40:39.497Z,17.65
2017-08-15T01:41:20.385Z,17.67
2017-08-15T01:42:01.291Z,17.7
2017-08-15T01:42:42.174Z,17.76
2017-08-15T01:43:23.056Z,17.67
2017-08-15T01:44:03.943Z,17.63
2017-08-15T01:44:44.823Z,17.63
2017-08-15T01:45:25.707Z,17.65
2017-08-15T01:46:06.599Z,17.63
2017-08-15T01:46:47.484Z,17.63
2017-08-15T01:47:28.379Z,17.59
2017-08-15T01:48:09.272Z,17.63
2017-08-15T01:48:50.153Z,17.63
2017-08-15T01:49:31.041Z,17.56
2017-08-15T01:50:11.949Z,17.57
2017-08-15T01:50:52.829Z,17.65
2017-08-15T01:51:33.704Z,17.74
2017-08-15T01:52:14.590Z,17.63
2017-08-15T01:52:55.481Z,17.59
2017-08-15T01:53:36.365Z,17.63
2017-08-15T01:54:17.243Z,17.64
2017-08-15T01:54:58.130Z,17.6
2017-08-15T01:55:39.016Z,17.6
2017-08-15T01:56:19.905Z,17.59
2017-08-15T01:57:00.837Z,17.65
2017-08-15T01:57:41.723Z,17.65
2017-08-15T01:58:22.627Z,17.67
2017-08-15T01:59:03.521Z,17.64
2017-08-15T01:59:44.411Z,17.65
2017-08-15T02:00:25.294Z,17.65
2017-08-15T02:01:06.183Z,17.57
2017-08-15T02:01:47.091Z,17.67
2017-08-15T02:02:27.963Z,17.65
2017-08-15T02:03:08.865Z,17.63
2017-08-15T02:03:49.743Z,17.59
2017-08-15T02:04:30.624Z,17.65
2017-08-15T02:05:11.511Z,17.6
2017-08-15T02:05:52.402Z,17.63
2017-08-15T02:06:33.283Z,17.64
2017-08-15T02:07:14.177Z,17.57
2017-08-15T02:07:55.066Z,17.65
2017-08-15T02:08:35.955Z,17.64
2017-08-15T02:09:16.834Z,17.63
2017-08-15T02:09:57.714Z,17.54
2017-08-15T02:10:38.615Z,17.64
2017-08-15T02:11:19.502Z,17.49
2017-08-15T02:12:00.379Z,17.57
2017-08-15T02:12:41.275Z,17.6
2017-08-15T02:13:22.176Z,17.6
2017-08-15T02:14:03.065Z,17.54
2017-08-15T02:14:43.941Z,17.65
2017-08-15T02:15:24.825Z,17.63
2017-08-15T02:16:05.711Z,17.56
2017-08-15T02:16:46.571Z,17.54
2017-08-15T02:17:27.469Z,17.54
2017-08-15T02:18:08.359Z,17.44
2017-08-15T02:18:49.235Z,17.46
2017-08-15T02:19:30.120Z,17.54
2017-08-15T02:20:11.013Z,17.46
2017-08-15T02:20:51.896Z,17.54
2017-08-15T02:21:32.783Z,17.41
2017-08-15T02:22:13.664Z,17.52
2017-08-15T02:22:54.550Z,17.51
2017-08-15T02:23:35.457Z,17.51
2017-08-15T02:24:16.341Z,17.44
2017-08-15T02:24:57.222Z,17.42
2017-08-15T02:25:38.128Z,17.51
2017-08-15T02:26:19.012Z,17.51
2017-08-15T02:26:59.902Z,17.38
2017-08-15T02:27:40.801Z,17.49
2017-08-15T02:28:21.694Z,17.52
2017-08-15T02:29:02.604Z,17.33
2017-08-15T02:29:43.484Z,17.33
2017-08-15T02:30:24.362Z,17.36
2017-08-15T02:31:05.254Z,17.36
2017-08-15T02:31:46.161Z,17.42
2017-08-15T02:32:27.020Z,17.33
2017-08-15T02:33:07.928Z,17.33
2017-08-15T02:33:48.813Z,17.34
2017-08-15T02:34:29.691Z,17.38
2017-08-15T02:35:10.576Z,17.34
2017-08-15T02:35:51.465Z,17.36
2017-08-15T02:36:32.346Z,17.27
2017-08-15T02:37:13.230Z,17.27
2017-08-15T02:37:54.101Z,17.27
2017-08-15T02:38:34.982Z,17.26
2017-08-15T02:39:15.883Z,17.33
2017-08-15T02:39:56.787Z,17.27
2017-08-15T02:40:37.679Z,17.27
2017-08-15T02:41:18.566Z,17.27
2017-08-15T02:41:59.444Z,17.27
2017-08-15T02:42:40.345Z,17.27
2017-08-15T02:43:21.229Z,17.24
2017-08-15T02:44:02.110Z,17.3
2017-08-15T02:44:43.011Z,17.34
2017-08-15T02:45:23.961Z,17.29
2017-08-15T02:46:04.821Z,17.33
2017-08-15T02:46:45.712Z,17.29
2017-08-15T02:47:26.604Z,17.29
2017-08-15T02:48:07.476Z,17.31
2017-08-15T02:48:48.371Z,17.31
2017-08-15T02:49:29.260Z,17.31
2017-08-15T02:50:10.137Z,17.27
2017-08-15T02:50:51.063Z,17.27
2017-08-15T02:51:31.942Z,17.27
2017-08-15T02:52:12.835Z,17.31
2017-08-15T02:52:53.728Z,17.24
2017-08-15T02:53:34.613Z,17.26
2017-08-15T02:54:15.499Z,17.27
2017-08-15T02:54:56.384Z,17.26
2017-08-15T02:55:37.279Z,17.26
2017-08-15T02:56:18.174Z,17.31
2017-08-15T02:56:59.120Z,17.23
2017-08-15T02:57:39.988Z,17.26
2017-08-15T02:58:20.855Z,17.26
2017-08-15T02:59:01.737Z,17.22
2017-08-15T02:59:42.637Z,17.24
2017-08-15T03:00:23.527Z,17.24
2017-08-15T03:01:04.420Z,17.16
2017-08-15T03:01:45.317Z,17.15
2017-08-15T03:02:26.199Z,17.15
2017-08-15T03:03:07.078Z,17.15
2017-08-15T03:03:47.979Z,17.16
2017-08-15T03:04:28.874Z,17.19
2017-08-15T03:05:09.758Z,17.24
2017-08-15T03:05:50.648Z,17.27
2017-08-15T03:06:31.533Z,17.23
2017-08-15T03:07:12.416Z,17.26
2017-08-15T03:07:53.297Z,17.29
2017-08-15T03:08:34.198Z,17.15
2017-08-15T03:09:15.087Z,17.23
2017-08-15T03:09:55.983Z,17.26
2017-08-15T03:10:36.874Z,17.19
2017-08-15T03:11:17.767Z,17.27
2017-08-15T03:11:58.643Z,17.22
2017-08-15T03:12:39.526Z,17.14
2017-08-15T03:13:20.435Z,17.2
2017-08-15T03:14:01.311Z,17.16
2017-08-15T03:14:42.207Z,17.22
2017-08-15T03:15:23.098Z,17.19
2017-08-15T03:16:03.979Z,17.16
2017-08-15T03:16:44.861Z,17.15
2017-08-15T03:17:25.752Z,17.22
2017-08-15T03:18:06.653Z,17.23
2017-08-15T03:18:47.516Z,17.27
2017-08-15T03:19:28.423Z,17.27
2017-08-15T03:20:09.313Z,17.31
2017-08-15T03:20:50.199Z,17.26
2017-08-15T03:21:31.095Z,17.26
2017-08-15T03:22:11.983Z,17.26
2017-08-15T03:22:52.860Z,17.2
2017-08-15T03:23:33.758Z,17.19
2017-08-15T03:24:14.645Z,17.19
2017-08-15T03:24:55.541Z,17.16
2017-08-15T03:25:36.397Z,17.19
2017-08-15T03:26:17.276Z,17.15
2017-08-15T03:26:58.175Z,17.29
2017-08-15T03:27:39.062Z,17.15
2017-08-15T03:28:19.961Z,17.09
2017-08-15T03:29:00.848Z,17.12
2017-08-15T03:29:41.735Z,17.11
2017-08-15T03:30:22.636Z,17.15
2017-08-15T03:31:03.525Z,17.06
2017-08-15T03:31:44.405Z,17.05
2017-08-15T03:32:25.289Z,16.99
2017-08-15T03:33:06.202Z,17.05
2017-08-15T03:33:47.085Z,16.97
2017-08-15T03:34:27.988Z,17.04
2017-08-15T03:35:08.881Z,16.9
2017-08-15T03:35:49.786Z,16.97
2017-08-15T03:36:30.686Z,17.02
2017-08-15T03:37:11.571Z,16.99
2017-08-15T03:37:52.451Z,17.02
2017-08-15T03:38:33.335Z,17.02
2017-08-15T03:39:14.226Z,16.84
2017-08-15T03:39:55.112Z,17.01
2017-08-15T03:40:36.011Z,16.89
2017-08-15T03:41:16.903Z,16.86
2017-08-15T03:41:57.778Z,16.9
2017-08-15T03:42:38.666Z,16.87
2017-08-15T03:43:19.559Z,16.87
2017-08-15T03:44:00.444Z,16.87
2017-08-15T03:44:41.320Z,16.91
2017-08-15T03:45:22.204Z,16.93
2017-08-15T03:46:03.114Z,16.86
2017-08-15T03:46:43.995Z,16.91
2017-08-15T03:47:24.887Z,16.89
2017-08-15T03:48:05.797Z,16.9
2017-08-15T03:48:46.682Z,16.89
2017-08-15T03:49:27.578Z,16.86
2017-08-15T03:50:08.475Z,16.94
2017-08-15T03:50:49.355Z,16.81
2017-08-15T03:51:30.301Z,16.84
2017-08-15T03:52:11.186Z,16.83
2017-08-15T03:52:52.078Z,16.78
2017-08-15T03:53:32.959Z,16.75
2017-08-15T03:54:13.841Z,16.81
2017-08-15T03:54:54.725Z,16.83
2017-08-15T03:55:35.621Z,16.76
2017-08-15T03:56:16.515Z,16.79
2017-08-15T03:56:57.426Z,16.81
2017-08-15T03:57:38.286Z,16.79
2017-08-15T03:58:19.183Z,16.79
2017-08-15T03:59:00.071Z,16.64
2017-08-15T03:59:40.958Z,16.68
2017-08-15T04:00:21.837Z,16.76
2017-08-15T04:01:02.727Z,16.66
2017-08-15T04:01:43.589Z,16.64
2017-08-15T04:02:24.465Z,16.68
2017-08-15T04:03:05.357Z,16.64
2017-08-15T04:03:46.245Z,16.69
2017-08-15T04:04:27.133Z,16.68
2017-08-15T04:05:08.016Z,16.71
2017-08-15T04:05:48.897Z,16.64
2017-08-15T04:06:29.787Z,16.68
2017-08-15T04:07:10.669Z,16.64
2017-08-15T04:07:51.555Z,16.75
2017-08-15T04:08:32.444Z,16.61
2017-08-15T04:09:13.342Z,16.61
2017-08-15T04:09:54.230Z,16.54
2017-08-15T04:10:35.137Z,16.57
2017-08-15T04:11:16.014Z,16.57
2017-08-15T04:11:56.903Z,16.6
2017-08-15T04:12:37.778Z,16.57
2017-08-15T04:13:18.677Z,16.54
2017-08-15T04:13:59.578Z,16.51
2017-08-15T04:14:40.468Z,16.64
2017-08-15T04:15:21.347Z,16.56
2017-08-15T04:16:02.229Z,16.56
2017-08-15T04:16:43.115Z,16.56
2017-08-15T04:17:24.004Z,16.65
2017-08-15T04:18:04.869Z,16.64
2017-08-15T04:18:45.770Z,16.56
2017-08-15T04:19:26.675Z,16.64
2017-08-15T04:20:07.575Z,16.66
2017-08-15T04:20:48.439Z,16.61
2017-08-15T04:21:29.327Z,16.64
2017-08-15T04:22:10.203Z,16.64
2017-08-15T04:22:51.087Z,16.65
2017-08-15T04:23:31.962Z,16.72
2017-08-15T04:24:12.863Z,16.66
2017-08-15T04:24:53.744Z,16.69
2017-08-15T04:25:34.621Z,16.71
2017-08-15T04:26:15.519Z,16.66
2017-08-15T04:26:56.419Z,16.71
2017-08-15T04:27:37.297Z,16.65
2017-08-15T04:28:18.182Z,16.64
2017-08-15T04:28:59.068Z,16.74
2017-08-15T04:29:39.949Z,16.64
2017-08-15T04:30:20.831Z,16.66
2017-08-15T04:31:01.723Z,16.65
2017-08-15T04:31:42.615Z,16.66
2017-08-15T04:32:23.509Z,16.76
2017-08-15T04:33:04.392Z,16.66
2017-08-15T04:33:45.279Z,16.61
2017-08-15T04:34:26.159Z,16.79
2017-08-15T04:35:07.049Z,16.64
2017-08-15T04:35:47.936Z,16.71
2017-08-15T04:36:28.823Z,16.75
2017-08-15T04:37:09.713Z,16.69
2017-08-15T04:37:50.593Z,16.74
2017-08-15T04:38:31.500Z,16.71
2017-08-15T04:39:12.364Z,16.75
2017-08-15T04:39:53.256Z,16.78
2017-08-15T04:40:34.154Z,16.64
2017-08-15T04:41:15.051Z,16.65
2017-08-15T04:41:55.954Z,16.69
2017-08-15T04:42:36.849Z,16.69
2017-08-15T04:43:17.731Z,16.66
2017-08-15T04:43:58.623Z,16.68
2017-08-15T04:44:39.559Z,16.71
2017-08-15T04:45:20.404Z,16.65
2017-08-15T04:46:01.286Z,16.66
2017-08-15T04:46:42.168Z,16.69
2017-08-15T04:47:23.104Z,16.69
2017-08-15T04:48:03.972Z,16.64
2017-08-15T04:48:44.874Z,16.58
2017-08-15T04:49:25.756Z,16.65
2017-08-15T04:50:06.681Z,16.72
2017-08-15T04:50:47.565Z,16.65
2017-08-15T04:51:28.443Z,16.66
2017-08-15T04:52:09.338Z,16.66
2017-08-15T04:52:50.227Z,16.72
2017-08-15T04:53:31.160Z,16.81
2017-08-15T04:54:12.044Z,16.75
2017-08-15T04:54:52.920Z,16.78
2017-08-15T04:55:33.820Z,16.75
2017-08-15T04:56:14.691Z,16.75
2017-08-15T04:56:55.582Z,16.76
2017-08-15T04:57:36.469Z,16.83
2017-08-15T04:58:17.359Z,16.79
2017-08-15T04:58:58.259Z,16.79
2017-08-15T04:59:39.160Z,16.78
2017-08-15T05:00:20.029Z,16.76
2017-08-15T05:01:00.951Z,16.75
2017-08-15T05:01:41.845Z,16.86
2017-08-15T05:02:22.740Z,16.86
2017-08-15T05:03:03.620Z,16.9
2017-08-15T05:03:44.501Z,16.9
2017-08-15T05:04:25.411Z,16.87
2017-08-15T05:06:03.909Z,16.87
2017-08-15T05:06:44.792Z,16.87
2017-08-15T05:07:25.680Z,16.87
2017-08-15T05:08:06.557Z,16.86
2017-08-15T05:08:47.455Z,16.87
2017-08-15T05:09:28.339Z,16.81
2017-08-15T05:10:09.216Z,16.86
2017-08-15T05:10:50.098Z,16.83
2017-08-15T05:11:30.989Z,16.86
2017-08-15T05:12:11.875Z,16.78
2017-08-15T05:12:52.747Z,16.83
2017-08-15T05:13:33.635Z,16.9
2017-08-15T05:14:14.522Z,16.89
2017-08-15T05:14:55.400Z,16.87
2017-08-15T05:15:36.295Z,16.87
2017-08-15T05:16:17.196Z,16.87
2017-08-15T05:16:58.086Z,16.86
2017-08-15T05:17:38.960Z,16.89
2017-08-15T05:18:19.847Z,16.89
2017-08-15T05:19:00.745Z,16.94
2017-08-15T05:19:41.633Z,16.93
2017-08-15T05:20:22.518Z,16.93
2017-08-15T05:21:03.404Z,16.94
2017-08-15T05:21:44.297Z,16.96
2017-08-15T05:22:25.187Z,17.02
2017-08-15T05:23:06.081Z,16.93
2017-08-15T05:23:46.967Z,17.04
2017-08-15T05:24:27.851Z,17.06
2017-08-15T05:25:08.732Z,17.09
2017-08-15T05:25:49.648Z,17.06
2017-08-15T05:26:30.529Z,17.06
2017-08-15T05:27:11.413Z,17.09
2017-08-15T05:27:52.314Z,17.01
2017-08-15T05:28:33.193Z,17.08
2017-08-15T05:29:14.071Z,17.06
2017-08-15T05:29:54.966Z,17.11
2017-08-15T05:30:35.846Z,17.09
2017-08-15T05:31:16.731Z,17.09
2017-08-15T05:31:57.618Z,17.14
2017-08-15T05:32:38.506Z,17.24
2017-08-15T05:33:19.387Z,17.23
2017-08-15T05:34:00.268Z,17.31
2017-08-15T05:34:41.157Z,17.22
2017-08-15T05:35:22.049Z,17.3
2017-08-15T05:36:02.940Z,17.29
2017-08-15T05:36:43.879Z,17.27
2017-08-15T05:37:24.757Z,17.27
2017-08-15T05:38:05.639Z,17.27
2017-08-15T05:38:46.532Z,17.36
2017-08-15T05:39:27.414Z,17.33
2017-08-15T05:40:08.290Z,17.33
2017-08-15T05:40:49.174Z,17.44
2017-08-15T05:41:30.061Z,17.38
2017-08-15T05:42:10.968Z,17.36
2017-08-15T05:42:51.842Z,17.39
2017-08-15T05:43:32.736Z,17.48
2017-08-15T05:44:13.619Z,17.42
2017-08-15T05:44:54.504Z,17.39
2017-08-15T05:45:35.390Z,17.49
2017-08-15T05:46:16.286Z,17.51
2017-08-15T05:46:57.173Z,17.54
2017-08-15T05:47:38.059Z,17.64
2017-08-15T05:48:18.967Z,17.59
2017-08-15T05:48:59.832Z,17.54
2017-08-15T05:49:40.711Z,17.6
2017-08-15T05:50:21.591Z,17.79
2017-08-15T05:51:02.491Z,17.59
2017-08-15T05:51:43.367Z,17.78
2017-08-15T05:52:24.259Z,17.76
2017-08-15T05:53:05.154Z,17.71
2017-08-15T05:53:46.038Z,17.8
2017-08-15T05:54:26.941Z,17.78
2017-08-15T05:55:07.830Z,17.83
2017-08-15T05:55:48.707Z,17.85
2017-08-15T05:56:29.603Z,17.85
2017-08-15T05:57:10.455Z,17.89
2017-08-15T05:57:51.397Z,17.86
2017-08-15T05:58:32.267Z,17.89
2017-08-15T05:59:13.152Z,18.03
2017-08-15T05:59:54.040Z,18
2017-08-15T06:00:34.956Z,18.03
2017-08-15T06:01:15.810Z,18.03
2017-08-15T06:01:56.689Z,18.05
2017-08-15T06:02:37.585Z,18.15
2017-08-15T06:03:18.472Z,18.04
2017-08-15T06:03:59.368Z,18.11
2017-08-15T06:04:40.269Z,18.07
2017-08-15T06:05:21.140Z,18.18
2017-08-15T06:06:02.026Z,18.22
2017-08-15T06:06:42.926Z,18.2
2017-08-15T06:07:23.837Z,18.28
2017-08-15T06:08:04.715Z,18.35
2017-08-15T06:08:45.612Z,18.31
2017-08-15T06:09:26.492Z,18.44
2017-08-15T06:10:07.377Z,18.49
2017-08-15T06:10:48.277Z,18.41
2017-08-15T06:11:29.180Z,18.47
2017-08-15T06:12:10.061Z,18.52
2017-08-15T06:12:50.947Z,18.5
2017-08-15T06:13:31.838Z,18.53
2017-08-15T06:14:12.740Z,18.56
2017-08-15T06:14:53.609Z,18.63
2017-08-15T06:15:34.502Z,18.63
2017-08-15T06:16:15.378Z,18.58
2017-08-15T06:16:56.271Z,18.66
2017-08-15T06:17:37.160Z,18.75
2017-08-15T06:18:18.040Z,18.71
2017-08-15T06:18:58.931Z,18.81
2017-08-15T06:19:39.794Z,18.88
2017-08-15T06:20:20.656Z,18.75
2017-08-15T06:21:01.541Z,18.81
2017-08-15T06:21:42.450Z,18.88
2017-08-15T06:22:23.346Z,18.93
2017-08-15T06:23:04.220Z,18.9
2017-08-15T06:23:45.131Z,18.95
2017-08-15T06:24:26.016Z,18.99
2017-08-15T06:25:06.863Z,19.09
2017-08-15T06:25:47.756Z,19
2017-08-15T06:26:28.641Z,19.14
2017-08-15T06:27:09.540Z,19.19
2017-08-15T06:27:50.395Z,19.16
2017-08-15T06:28:31.267Z,19.26
2017-08-15T06:29:12.159Z,19.15
2017-08-15T06:29:53.053Z,19.33
2017-08-15T06:30:33.923Z,19.31
2017-08-15T06:31:14.818Z,19.29
2017-08-15T06:31:55.685Z,19.37
2017-08-15T06:32:36.574Z,19.27
2017-08-15T06:33:17.455Z,19.37
2017-08-15T06:33:58.321Z,19.39
2017-08-15T06:34:39.188Z,19.44
2017-08-15T06:35:20.091Z,19.48
2017-08-15T06:36:00.998Z,19.47
2017-08-15T06:36:41.892Z,19.44
2017-08-15T06:37:22.784Z,19.56
2017-08-15T06:38:03.665Z,19.52
2017-08-15T06:38:44.542Z,19.59
2017-08-15T06:39:25.447Z,19.56
2017-08-15T06:40:06.332Z,19.63
2017-08-15T06:40:47.201Z,19.69
2017-08-15T06:41:28.100Z,19.7
2017-08-15T06:42:08.996Z,19.73
2017-08-15T06:42:49.887Z,19.74
2017-08-15T06:43:30.746Z,19.89
2017-08-15T06:44:11.617Z,19.84
2017-08-15T06:44:52.521Z,19.86
2017-08-15T06:45:33.416Z,19.89
2017-08-15T06:46:14.309Z,20.03
2017-08-15T06:46:55.205Z,20.06
2017-08-15T06:47:36.081Z,20.09
2017-08-15T06:48:16.962Z,20.13
2017-08-15T06:48:57.849Z,20.19
2017-08-15T06:49:38.752Z,20.21
2017-08-15T06:50:19.637Z,20.29
2017-08-15T06:51:00.543Z,20.32
2017-08-15T06:51:41.431Z,20.43
2017-08-15T06:52:22.315Z,20.4
2017-08-15T06:53:03.201Z,20.51
2017-08-15T06:53:44.105Z,20.52
2017-08-15T06:54:24.996Z,20.62
2017-08-15T06:55:05.879Z,20.59
2017-08-15T06:55:46.893Z,20.75
2017-08-15T06:56:27.785Z,20.88
2017-08-15T06:57:08.674Z,21.02
2017-08-15T06:57:49.559Z,21.12
2017-08-15T06:58:30.444Z,21.11
2017-08-15T06:59:11.329Z,21.11
2017-08-15T06:59:52.215Z,21.24
2017-08-15T07:00:33.098Z,21.18
2017-08-15T07:01:13.980Z,21.3
2017-08-15T07:01:54.878Z,21.33
2017-08-15T07:02:35.780Z,21.33
2017-08-15T07:03:16.657Z,21.42
2017-08-15T07:03:57.560Z,21.46
2017-08-15T07:04:38.448Z,21.61
2017-08-15T07:05:19.319Z,21.62
2017-08-15T07:06:00.241Z,21.75
2017-08-15T07:06:41.138Z,21.98
2017-08-15T07:07:22.036Z,22.29
2017-08-15T07:08:02.923Z,22.69
2017-08-15T07:08:43.814Z,23.02
2017-08-15T07:09:24.717Z,23.25
2017-08-15T07:10:05.594Z,23.46
2017-08-15T07:10:46.479Z,23.66
2017-08-15T07:11:27.375Z,23.93
2017-08-15T07:12:08.280Z,23.95
2017-08-15T07:12:49.171Z,24.26
2017-08-15T07:13:30.071Z,24.2
2017-08-15T07:14:10.961Z,24.39
2017-08-15T07:14:51.859Z,24.42
2017-08-15T07:15:32.753Z,24.45
2017-08-15T07:16:13.655Z,24.35
2017-08-15T07:16:54.553Z,24.43
2017-08-15T07:17:35.448Z,24.24
2017-08-15T07:18:16.361Z,24.33
2017-08-15T07:18:57.244Z,24.29
2017-08-15T07:19:38.142Z,24.17
2017-08-15T07:20:19.038Z,24.02
2017-08-15T07:20:59.935Z,24.17
2017-08-15T07:21:40.825Z,24.1
2017-08-15T07:22:21.726Z,24.23
2017-08-15T07:23:02.623Z,24.39
2017-08-15T07:23:43.515Z,24.57
2017-08-15T07:24:24.419Z,24.74
2017-08-15T07:25:05.313Z,25.01
2017-08-15T07:25:46.207Z,25.1
2017-08-15T07:26:27.129Z,25.17
2017-08-15T07:27:08.019Z,25.41
2017-08-15T07:27:48.912Z,25.69
2017-08-15T07:28:29.799Z,25.88
2017-08-15T07:29:10.703Z,26.22
2017-08-15T07:29:51.595Z,26.43
2017-08-15T07:30:32.463Z,26.31
2017-08-15T07:31:13.348Z,26.06
2017-08-15T07:31:54.244Z,26.05
2017-08-15T07:32:35.151Z,25.98
2017-08-15T07:33:16.050Z,25.9
2017-08-15T07:33:56.983Z,25.73
2017-08-15T07:34:37.925Z,25.91
2017-08-15T07:35:18.807Z,25.98
2017-08-15T07:35:59.710Z,26.28
2017-08-15T07:36:40.603Z,26.26
2017-08-15T07:37:21.528Z,26.34
2017-08-15T07:38:02.423Z,26.47
2017-08-15T07:38:43.325Z,26.65
2017-08-15T07:39:24.230Z,26.71
2017-08-15T07:40:05.133Z,26.66
2017-08-15T07:40:46.044Z,26.9
2017-08-15T07:41:26.940Z,26.58
2017-08-15T07:42:07.872Z,26.75
2017-08-15T07:42:48.759Z,26.9
2017-08-15T07:43:29.664Z,26.43
2017-08-15T07:44:10.566Z,26.45
2017-08-15T07:44:51.461Z,26.22
2017-08-15T07:45:32.364Z,26.13
2017-08-15T07:46:13.259Z,25.95
2017-08-15T07:46:54.187Z,25.95
2017-08-15T07:47:35.072Z,26.02
2017-08-15T07:48:15.980Z,26.05
2017-08-15T07:48:56.876Z,26.18
2017-08-15T07:49:37.774Z,26.25
2017-08-15T07:50:18.676Z,26.26
2017-08-15T07:50:59.568Z,26.34
2017-08-15T07:51:40.479Z,26.36
2017-08-15T07:52:21.374Z,26.18
2017-08-15T07:53:02.275Z,26.19
2017-08-15T07:53:43.193Z,25.95
2017-08-15T07:54:24.079Z,25.91
2017-08-15T07:55:04.976Z,25.85
2017-08-15T07:55:45.870Z,25.88
2017-08-15T07:56:26.781Z,25.81
2017-08-15T07:57:07.687Z,25.95
2017-08-15T07:57:48.599Z,25.98
2017-08-15T07:58:29.487Z,26
2017-08-15T07:59:10.415Z,26.09
2017-08-15T07:59:51.291Z,26.41
2017-08-15T08:00:32.196Z,26.43
2017-08-15T08:01:13.100Z,26.45
2017-08-15T08:01:54.000Z,26.62
2017-08-15T08:02:34.911Z,26.66
2017-08-15T08:03:15.820Z,26.68
2017-08-15T08:03:56.713Z,26.52
2017-08-15T08:04:37.635Z,26.48
2017-08-15T08:05:18.541Z,26.37
2017-08-15T08:05:59.434Z,26.15
2017-08-15T08:06:40.349Z,25.84
2017-08-15T08:07:21.241Z,25.73
2017-08-15T08:08:02.125Z,26
2017-08-15T08:08:43.026Z,26.19
2017-08-15T08:09:23.930Z,26.07
2017-08-15T08:10:04.838Z,26.19
2017-08-15T08:10:45.732Z,26.18
2017-08-15T08:11:26.628Z,26.21
2017-08-15T08:12:07.535Z,26.25
2017-08-15T08:12:48.436Z,26.37
2017-08-15T08:13:29.359Z,26.44
2017-08-15T08:14:10.230Z,26.78
2017-08-15T08:14:51.165Z,26.78
2017-08-15T08:15:32.072Z,26.92
2017-08-15T08:16:12.990Z,27.21
2017-08-15T08:16:53.875Z,27.42
2017-08-15T08:17:34.765Z,27.45
2017-08-15T08:18:15.684Z,27.47
2017-08-15T08:18:56.574Z,27.54
2017-08-15T08:19:37.525Z,27.68
2017-08-15T08:20:18.434Z,27.64
2017-08-15T08:20:59.328Z,27.83
2017-08-15T08:21:40.288Z,27.85
2017-08-15T08:22:21.175Z,28.14
2017-08-15T08:23:02.108Z,27.93
2017-08-15T08:23:43.001Z,28.25
2017-08-15T08:24:23.936Z,28.59
2017-08-15T08:25:04.843Z,28.66
2017-08-15T08:25:45.746Z,28.91
2017-08-15T08:26:26.650Z,29.26
2017-08-15T08:27:07.559Z,29.49
2017-08-15T08:27:48.464Z,29.76
2017-08-15T08:28:29.380Z,29.68
2017-08-15T08:29:10.263Z,29.79
2017-08-15T08:29:51.164Z,29.87
2017-08-15T08:30:32.082Z,29.88
2017-08-15T08:31:13.004Z,29.76
2017-08-15T08:31:53.902Z,29.71
2017-08-15T08:32:34.797Z,29.51
2017-08-15T08:33:15.701Z,29.22
2017-08-15T08:33:56.617Z,29.07
2017-08-15T08:34:37.518Z,29.35
2017-08-15T08:35:18.439Z,29.84
2017-08-15T08:35:59.344Z,30.06
2017-08-15T08:36:40.265Z,30.47
2017-08-15T08:37:21.172Z,30.34
2017-08-15T08:38:02.083Z,30.57
2017-08-15T08:38:42.990Z,30.81
2017-08-15T08:39:23.894Z,30.97
2017-08-15T08:40:04.858Z,31.27
2017-08-15T08:41:58.516Z,30.35
2017-08-15T08:42:39.404Z,29.87
2017-08-15T08:43:20.309Z,29.84
2017-08-15T08:44:01.216Z,29.6
2017-08-15T08:44:42.133Z,29.56
2017-08-15T08:45:23.030Z,29.08
2017-08-15T08:46:03.933Z,29.39
2017-08-15T08:46:44.845Z,30.08
2017-08-15T08:47:25.753Z,30.18
2017-08-15T08:48:06.692Z,30.5
2017-08-15T08:48:47.603Z,30.27
2017-08-15T08:49:28.493Z,30.05
2017-08-15T08:50:09.396Z,29.86
2017-08-15T08:50:50.328Z,29.78
2017-08-15T08:51:31.284Z,29.36